sensor_id;sensor_type;location;lat;lon;timestamp;pressure;altitude;pressure_sealevel;temperature;humidity
26775;BME280;14362;51.902;7.626;2022-11-15T00:00:58;100388.25;;;9.22;100.00
26775;BME280;14362;51.902;7.626;2022-11-15T00:05:01;100391.88;;;9.22;100.00
26775;BME280;14362;51.902;7.626;2022-11-15T00:09:03;100386.31;;;9.22;100.00
26775;BME280;14362;51.902;7.626;2022-11-15T00:13:05;100381.25;;;9.24;100.00
26775;BME280;14362;51.902;7.626;2022-11-15T00:17:07;100361.44;;;9.26;100.00
26775;BME280;14362;51.902;7.626;2022-11-15T00:21:11;100364.72;;;9.28;100.00
26775;BME280;14362;51.902;7.626;2022-11-15T00:25:14;100364.72;;;9.28;100.00
26775;BME280;14362;51.902;7.626;2022-11-15T00:29:15;100363.38;;;9.25;100.00
26775;BME280;14362;51.902;7.626;2022-11-15T00:33:16;100367.16;;;9.29;100.00
26775;BME280;14362;51.902;7.626;2022-11-15T00:37:19;100359.31;;;9.31;100.00
26775;BME280;14362;51.902;7.626;2022-11-15T00:41:21;100351.97;;;9.35;100.00
26775;BME280;14362;51.902;7.626;2022-11-15T00:45:22;100354.75;;;9.35;100.00
26775;BME280;14362;51.902;7.626;2022-11-15T00:49:24;100334.16;;;9.36;100.00
26775;BME280;14362;51.902;7.626;2022-11-15T00:53:27;100344.78;;;9.34;100.00
26775;BME280;14362;51.902;7.626;2022-11-15T00:57:28;100344.63;;;9.39;100.00
26775;BME280;14362;51.902;7.626;2022-11-15T01:01:30;100339.38;;;9.38;100.00
26775;BME280;14362;51.902;7.626;2022-11-15T01:05:31;100328.59;;;9.36;100.00
26775;BME280;14362;51.902;7.626;2022-11-15T01:09:34;100321.53;;;9.39;100.00
26775;BME280;14362;51.902;7.626;2022-11-15T01:13:37;100325.16;;;9.39;100.00
26775;BME280;14362;51.902;7.626;2022-11-15T01:17:38;100329.56;;;9.40;100.00
26775;BME280;14362;51.902;7.626;2022-11-15T01:21:40;100322.19;;;9.44;100.00
26775;BME280;14362;51.902;7.626;2022-11-15T01:25:42;100314.03;;;9.48;100.00
26775;BME280;14362;51.902;7.626;2022-11-15T01:29:44;100309.25;;;9.48;100.00
26775;BME280;14362;51.902;7.626;2022-11-15T01:33:46;100311.75;;;9.50;100.00
26775;BME280;14362;51.902;7.626;2022-11-15T01:37:47;100306.66;;;9.52;100.00
26775;BME280;14362;51.902;7.626;2022-11-15T01:41:50;100307.13;;;9.54;100.00
26775;BME280;14362;51.902;7.626;2022-11-15T01:45:55;100302.56;;;9.58;100.00
26775;BME280;14362;51.902;7.626;2022-11-15T01:50:02;100294.69;;;9.60;100.00
26775;BME280;14362;51.902;7.626;2022-11-15T01:54:07;100297.31;;;9.65;100.00
26775;BME280;14362;51.902;7.626;2022-11-15T01:58:11;100293.53;;;9.69;100.00
26775;BME280;14362;51.902;7.626;2022-11-15T02:02:12;100279.78;;;9.73;100.00
26775;BME280;14362;51.902;7.626;2022-11-15T02:06:14;100279.63;;;9.78;100.00
26775;BME280;14362;51.902;7.626;2022-11-15T02:10:19;100284.53;;;9.81;100.00
26775;BME280;14362;51.902;7.626;2022-11-15T02:14:24;100280.75;;;9.85;100.00
26775;BME280;14362;51.902;7.626;2022-11-15T02:18:31;100264.53;;;9.87;100.00
26775;BME280;14362;51.902;7.626;2022-11-15T02:22:40;100273.22;;;9.94;100.00
26775;BME280;14362;51.902;7.626;2022-11-15T02:27:24;100255.50;;;9.99;100.00
26775;BME280;14362;51.902;7.626;2022-11-15T02:31:36;100262.88;;;10.03;100.00
26775;BME280;14362;51.902;7.626;2022-11-15T02:35:45;100265.00;;;10.06;100.00
26775;BME280;14362;51.902;7.626;2022-11-15T02:39:51;100261.22;;;10.11;100.00
26775;BME280;14362;51.902;7.626;2022-11-15T02:43:59;100252.69;;;10.16;100.00
26775;BME280;14362;51.902;7.626;2022-11-15T02:48:05;100247.13;;;10.16;100.00
26775;BME280;14362;51.902;7.626;2022-11-15T02:52:07;100250.41;;;10.18;100.00
26775;BME280;14362;51.902;7.626;2022-11-15T02:56:09;100251.03;;;10.23;100.00
26775;BME280;14362;51.902;7.626;2022-11-15T03:00:12;100248.41;;;10.26;100.00
26775;BME280;14362;51.902;7.626;2022-11-15T03:04:23;100248.69;;;10.33;100.00
26775;BME280;14362;51.902;7.626;2022-11-15T03:08:31;100243.28;;;10.37;100.00
26775;BME280;14362;51.902;7.626;2022-11-15T03:12:40;100246.03;;;10.45;100.00
26775;BME280;14362;51.902;7.626;2022-11-15T03:16:46;100248.13;;;10.48;100.00
26775;BME280;14362;51.902;7.626;2022-11-15T03:20:50;100252.53;;;10.49;100.00
26775;BME280;14362;51.902;7.626;2022-11-15T03:24:56;100249.56;;;10.54;100.00
26775;BME280;14362;51.902;7.626;2022-11-15T03:29:01;100254.47;;;10.57;100.00
26775;BME280;14362;51.902;7.626;2022-11-15T03:33:04;100251.50;;;10.62;100.00
26775;BME280;14362;51.902;7.626;2022-11-15T03:37:08;100255.59;;;10.65;100.00
26775;BME280;14362;51.902;7.626;2022-11-15T03:41:16;100251.47;;;10.71;100.00
26775;BME280;14362;51.902;7.626;2022-11-15T03:45:24;100241.72;;;10.77;100.00
26775;BME280;14362;51.902;7.626;2022-11-15T03:49:30;100243.03;;;10.79;100.00
26775;BME280;14362;51.902;7.626;2022-11-15T03:53:35;100241.53;;;10.82;100.00
26775;BME280;14362;51.902;7.626;2022-11-15T03:57:37;100241.66;;;10.85;100.00
26775;BME280;14362;51.902;7.626;2022-11-15T04:01:38;100237.41;;;10.88;100.00
26775;BME280;14362;51.902;7.626;2022-11-15T04:05:40;100233.47;;;10.89;100.00
26775;BME280;14362;51.902;7.626;2022-11-15T04:09:42;100224.69;;;10.99;100.00
26775;BME280;14362;51.902;7.626;2022-11-15T04:14:02;100225.16;;;11.01;100.00
26775;BME280;14362;51.902;7.626;2022-11-15T04:18:03;100229.94;;;11.00;100.00
26775;BME280;14362;51.902;7.626;2022-11-15T04:22:07;100230.75;;;11.01;100.00
26775;BME280;14362;51.902;7.626;2022-11-15T04:26:27;100233.34;;;11.06;100.00
26775;BME280;14362;51.902;7.626;2022-11-15T04:30:29;100232.44;;;11.14;100.00
26775;BME280;14362;51.902;7.626;2022-11-15T04:34:31;100235.63;;;11.24;100.00
26775;BME280;14362;51.902;7.626;2022-11-15T04:38:33;100241.16;;;11.32;100.00
26775;BME280;14362;51.902;7.626;2022-11-15T04:42:36;100232.38;;;11.42;100.00
26775;BME280;14362;51.902;7.626;2022-11-15T04:46:37;100230.31;;;11.51;100.00
26775;BME280;14362;51.902;7.626;2022-11-15T04:50:38;100224.56;;;11.56;100.00
26775;BME280;14362;51.902;7.626;2022-11-15T04:54:40;100217.59;;;11.62;100.00
26775;BME280;14362;51.902;7.626;2022-11-15T04:58:43;100218.56;;;11.66;100.00
26775;BME280;14362;51.902;7.626;2022-11-15T05:02:44;100226.00;;;11.74;100.00
26775;BME280;14362;51.902;7.626;2022-11-15T05:07:04;100233.03;;;11.80;100.00
26775;BME280;14362;51.902;7.626;2022-11-15T05:11:05;100229.19;;;11.85;100.00
26775;BME280;14362;51.902;7.626;2022-11-15T05:15:09;100232.44;;;11.87;100.00
26775;BME280;14362;51.902;7.626;2022-11-15T05:19:11;100232.94;;;11.89;100.00
26775;BME280;14362;51.902;7.626;2022-11-15T05:23:12;100235.50;;;11.94;100.00
26775;BME280;14362;51.902;7.626;2022-11-15T05:27:14;100225.13;;;11.94;100.00
26775;BME280;14362;51.902;7.626;2022-11-15T05:31:16;100226.78;;;11.95;100.00
26775;BME280;14362;51.902;7.626;2022-11-15T05:35:21;100219.22;;;11.96;100.00
26775;BME280;14362;51.902;7.626;2022-11-15T05:39:27;100219.34;;;11.99;100.00
26775;BME280;14362;51.902;7.626;2022-11-15T05:43:30;100216.44;;;11.96;100.00
26775;BME280;14362;51.902;7.626;2022-11-15T05:47:36;100215.72;;;11.99;100.00
26775;BME280;14362;51.902;7.626;2022-11-15T05:51:39;100213.41;;;12.01;100.00
26775;BME280;14362;51.902;7.626;2022-11-15T05:55:41;100210.97;;;11.99;100.00
26775;BME280;14362;51.902;7.626;2022-11-15T05:59:42;100205.94;;;11.93;100.00
26775;BME280;14362;51.902;7.626;2022-11-15T06:03:45;100201.41;;;11.88;100.00
26775;BME280;14362;51.902;7.626;2022-11-15T06:07:47;100199.63;;;11.84;100.00
26775;BME280;14362;51.902;7.626;2022-11-15T06:11:48;100199.88;;;11.79;100.00
26775;BME280;14362;51.902;7.626;2022-11-15T06:15:50;100207.78;;;11.77;100.00
26775;BME280;14362;51.902;7.626;2022-11-15T06:19:52;100209.72;;;11.76;100.00
26775;BME280;14362;51.902;7.626;2022-11-15T06:23:54;100216.47;;;11.75;100.00
26775;BME280;14362;51.902;7.626;2022-11-15T06:27:56;100220.09;;;11.76;100.00
26775;BME280;14362;51.902;7.626;2022-11-15T06:31:58;100219.28;;;11.75;100.00
26775;BME280;14362;51.902;7.626;2022-11-15T06:36:02;100222.53;;;11.77;100.00
26775;BME280;14362;51.902;7.626;2022-11-15T06:40:04;100227.66;;;11.75;100.00
26775;BME280;14362;51.902;7.626;2022-11-15T06:44:05;100225.91;;;11.83;100.00
26775;BME280;14362;51.902;7.626;2022-11-15T06:48:07;100230.81;;;11.86;100.00
26775;BME280;14362;51.902;7.626;2022-11-15T06:52:09;100219.56;;;11.94;100.00
26775;BME280;14362;51.902;7.626;2022-11-15T06:56:11;100229.69;;;11.99;100.00
26775;BME280;14362;51.902;7.626;2022-11-15T07:00:13;100231.47;;;12.03;100.00
26775;BME280;14362;51.902;7.626;2022-11-15T07:04:15;100242.84;;;12.10;100.00
26775;BME280;14362;51.902;7.626;2022-11-15T07:08:18;100243.47;;;12.16;100.00
26775;BME280;14362;51.902;7.626;2022-11-15T07:12:19;100253.72;;;12.23;100.00
26775;BME280;14362;51.902;7.626;2022-11-15T07:16:20;100257.81;;;12.26;100.00
26775;BME280;14362;51.902;7.626;2022-11-15T07:20:22;100258.72;;;12.30;100.00
26775;BME280;14362;51.902;7.626;2022-11-15T07:24:25;100261.66;;;12.33;100.00
26775;BME280;14362;51.902;7.626;2022-11-15T07:28:26;100259.44;;;12.39;100.00
26775;BME280;14362;51.902;7.626;2022-11-15T07:32:28;100264.47;;;12.45;100.00
26775;BME280;14362;51.902;7.626;2022-11-15T07:36:29;100270.16;;;12.49;100.00
26775;BME280;14362;51.902;7.626;2022-11-15T07:40:32;100262.25;;;12.51;100.00
26775;BME280;14362;51.902;7.626;2022-11-15T07:44:33;100264.72;;;12.52;100.00
26775;BME280;14362;51.902;7.626;2022-11-15T07:48:35;100270.78;;;12.54;100.00
26775;BME280;14362;51.902;7.626;2022-11-15T07:52:37;100269.59;;;12.55;100.00
26775;BME280;14362;51.902;7.626;2022-11-15T07:56:40;100267.63;;;12.56;100.00
26775;BME280;14362;51.902;7.626;2022-11-15T08:00:41;100272.16;;;12.60;100.00
26775;BME280;14362;51.902;7.626;2022-11-15T08:04:43;100250.63;;;12.61;100.00
26775;BME280;14362;51.902;7.626;2022-11-15T08:08:46;100261.91;;;12.64;100.00
26775;BME280;14362;51.902;7.626;2022-11-15T08:12:56;100259.22;;;12.68;100.00
26775;BME280;14362;51.902;7.626;2022-11-15T08:16:58;100256.91;;;12.70;100.00
26775;BME280;14362;51.902;7.626;2022-11-15T08:21:00;100270.53;;;12.83;100.00
26775;BME280;14362;51.902;7.626;2022-11-15T08:25:02;100272.63;;;12.86;100.00
26775;BME280;14362;51.902;7.626;2022-11-15T08:29:05;100266.34;;;12.89;100.00
26775;BME280;14362;51.902;7.626;2022-11-15T08:33:10;100257.81;;;12.86;100.00
26775;BME280;14362;51.902;7.626;2022-11-15T08:37:11;100264.03;;;12.91;100.00
26775;BME280;14362;51.902;7.626;2022-11-15T08:41:16;100258.78;;;12.90;100.00
26775;BME280;14362;51.902;7.626;2022-11-15T08:45:21;100245.63;;;12.90;100.00
26775;BME280;14362;51.902;7.626;2022-11-15T08:49:22;100254.50;;;12.92;100.00
26775;BME280;14362;51.902;7.626;2022-11-15T08:53:24;100257.16;;;13.01;100.00
26775;BME280;14362;51.902;7.626;2022-11-15T08:57:28;100245.25;;;13.04;100.00
26775;BME280;14362;51.902;7.626;2022-11-15T09:01:31;100243.69;;;13.18;100.00
26775;BME280;14362;51.902;7.626;2022-11-15T09:05:35;100246.81;;;13.28;100.00
26775;BME280;14362;51.902;7.626;2022-11-15T09:09:37;100249.56;;;13.40;100.00
26775;BME280;14362;51.902;7.626;2022-11-15T09:13:39;100244.19;;;13.47;100.00
26775;BME280;14362;51.902;7.626;2022-11-15T09:17:42;100245.47;;;13.50;100.00
26775;BME280;14362;51.902;7.626;2022-11-15T09:21:43;100248.84;;;13.55;100.00
26775;BME280;14362;51.902;7.626;2022-11-15T09:25:44;100237.38;;;13.60;100.00
26775;BME280;14362;51.902;7.626;2022-11-15T09:29:46;100236.66;;;13.63;100.00
26775;BME280;14362;51.902;7.626;2022-11-15T09:33:48;100243.44;;;13.62;100.00
26775;BME280;14362;51.902;7.626;2022-11-15T09:37:50;100237.13;;;13.65;100.00
26775;BME280;14362;51.902;7.626;2022-11-15T09:42:01;100235.16;;;13.66;100.00
26775;BME280;14362;51.902;7.626;2022-11-15T09:46:14;100233.38;;;13.73;100.00
26775;BME280;14362;51.902;7.626;2022-11-15T09:50:36;100230.44;;;13.70;100.00
26775;BME280;14362;51.902;7.626;2022-11-15T09:54:43;100233.72;;;13.72;100.00
26775;BME280;14362;51.902;7.626;2022-11-15T09:58:54;100228.31;;;13.79;100.00
26775;BME280;14362;51.902;7.626;2022-11-15T10:03:09;100224.09;;;13.85;99.88
26775;BME280;14362;51.902;7.626;2022-11-15T10:07:17;100231.66;;;13.84;99.58
26775;BME280;14362;51.902;7.626;2022-11-15T10:11:22;100227.69;;;13.85;97.98
26775;BME280;14362;51.902;7.626;2022-11-15T10:15:25;100221.38;;;13.88;98.11
26775;BME280;14362;51.902;7.626;2022-11-15T10:19:34;100223.00;;;13.89;97.72
26775;BME280;14362;51.902;7.626;2022-11-15T10:23:39;100211.63;;;13.98;96.71
26775;BME280;14362;51.902;7.626;2022-11-15T10:27:42;100220.03;;;13.98;93.14
26775;BME280;14362;51.902;7.626;2022-11-15T10:31:44;100212.00;;;13.96;93.15
26775;BME280;14362;51.902;7.626;2022-11-15T10:35:45;100212.09;;;14.00;93.01
26775;BME280;14362;51.902;7.626;2022-11-15T10:40:03;100214.81;;;14.12;91.29
26775;BME280;14362;51.902;7.626;2022-11-15T10:44:16;100198.56;;;14.17;89.68
26775;BME280;14362;51.902;7.626;2022-11-15T10:48:25;100201.88;;;14.07;88.80
26775;BME280;14362;51.902;7.626;2022-11-15T10:52:27;100191.34;;;14.16;89.32
26775;BME280;14362;51.902;7.626;2022-11-15T10:56:31;100192.16;;;14.17;85.00
26775;BME280;14362;51.902;7.626;2022-11-15T11:00:34;100176.59;;;14.19;85.49
26775;BME280;14362;51.902;7.626;2022-11-15T11:04:49;100167.94;;;14.24;85.90
26775;BME280;14362;51.902;7.626;2022-11-15T11:08:58;100164.03;;;14.29;82.80
26775;BME280;14362;51.902;7.626;2022-11-15T11:13:14;100158.44;;;14.29;82.12
26775;BME280;14362;51.902;7.626;2022-11-15T11:17:20;100151.75;;;14.33;80.77
26775;BME280;14362;51.902;7.626;2022-11-15T11:21:32;100148.56;;;14.34;81.28
26775;BME280;14362;51.902;7.626;2022-11-15T11:25:42;100139.06;;;14.39;82.16
26775;BME280;14362;51.902;7.626;2022-11-15T11:29:57;100131.03;;;14.37;79.82
26775;BME280;14362;51.902;7.626;2022-11-15T11:34:13;100141.16;;;14.42;79.68
26775;BME280;14362;51.902;7.626;2022-11-15T11:38:32;100134.09;;;14.48;78.15
26775;BME280;14362;51.902;7.626;2022-11-15T11:42:42;100123.84;;;14.55;77.62
26775;BME280;14362;51.902;7.626;2022-11-15T11:46:59;100129.97;;;14.61;76.97
26775;BME280;14362;51.902;7.626;2022-11-15T11:51:05;100123.56;;;14.60;76.92
26775;BME280;14362;51.902;7.626;2022-11-15T11:55:14;100123.19;;;14.62;75.09
26775;BME280;14362;51.902;7.626;2022-11-15T11:59:21;100123.38;;;14.69;74.71
26775;BME280;14362;51.902;7.626;2022-11-15T12:03:29;100111.56;;;14.79;75.54
26775;BME280;14362;51.902;7.626;2022-11-15T12:07:33;100110.16;;;14.88;72.82
26775;BME280;14362;51.902;7.626;2022-11-15T12:11:43;100100.88;;;15.03;70.43
26775;BME280;14362;51.902;7.626;2022-11-15T12:15:56;100089.84;;;15.14;70.15
26775;BME280;14362;51.902;7.626;2022-11-15T12:20:03;100081.59;;;15.02;71.31
26775;BME280;14362;51.902;7.626;2022-11-15T12:24:13;100076.06;;;15.05;68.68
26775;BME280;14362;51.902;7.626;2022-11-15T12:28:19;100083.28;;;15.06;68.41
26775;BME280;14362;51.902;7.626;2022-11-15T12:32:26;100074.75;;;15.18;67.31
26775;BME280;14362;51.902;7.626;2022-11-15T12:36:40;100085.28;;;15.25;66.15
26775;BME280;14362;51.902;7.626;2022-11-15T12:45:26;100077.03;;;15.32;67.70
26775;BME280;14362;51.902;7.626;2022-11-15T12:49:51;100076.66;;;15.14;68.40
26775;BME280;14362;51.902;7.626;2022-11-15T12:53:54;100057.75;;;15.11;68.20
26775;BME280;14362;51.902;7.626;2022-11-15T13:02:36;100051.09;;;15.19;65.47
26775;BME280;14362;51.902;7.626;2022-11-15T13:06:41;100046.72;;;15.22;63.14
26775;BME280;14362;51.902;7.626;2022-11-15T13:10:45;100049.09;;;15.38;62.28
26775;BME280;14362;51.902;7.626;2022-11-15T13:14:48;100039.91;;;15.41;58.91
26775;BME280;14362;51.902;7.626;2022-11-15T13:18:53;100037.09;;;15.41;57.43
26775;BME280;14362;51.902;7.626;2022-11-15T13:23:01;100036.16;;;15.34;57.74
26775;BME280;14362;51.902;7.626;2022-11-15T13:27:10;100023.31;;;15.33;57.28
26775;BME280;14362;51.902;7.626;2022-11-15T13:31:27;100012.13;;;15.37;57.16
26775;BME280;14362;51.902;7.626;2022-11-15T13:35:32;100003.72;;;15.37;57.13
26775;BME280;14362;51.902;7.626;2022-11-15T13:39:37;100000.59;;;15.41;57.54
26775;BME280;14362;51.902;7.626;2022-11-15T13:43:40;99990.59;;;15.44;56.65
26775;BME280;14362;51.902;7.626;2022-11-15T13:47:41;99990.91;;;15.39;55.94
26775;BME280;14362;51.902;7.626;2022-11-15T13:51:46;99986.88;;;15.37;55.91
26775;BME280;14362;51.902;7.626;2022-11-15T13:55:48;99985.25;;;15.36;53.74
26775;BME280;14362;51.902;7.626;2022-11-15T13:59:53;99972.63;;;15.26;53.33
26775;BME280;14362;51.902;7.626;2022-11-15T14:03:57;99968.06;;;15.18;54.28
26775;BME280;14362;51.902;7.626;2022-11-15T14:08:02;99964.59;;;15.06;54.43
26775;BME280;14362;51.902;7.626;2022-11-15T14:16:33;99959.09;;;14.90;55.01
26775;BME280;14362;51.902;7.626;2022-11-15T14:20:37;99959.16;;;14.94;54.71
26775;BME280;14362;51.902;7.626;2022-11-15T14:24:40;99960.69;;;14.69;55.04
26775;BME280;14362;51.902;7.626;2022-11-15T14:28:41;99957.22;;;14.56;56.40
26775;BME280;14362;51.902;7.626;2022-11-15T14:32:46;99965.41;;;14.46;58.47
26775;BME280;14362;51.902;7.626;2022-11-15T14:36:48;99949.91;;;14.33;60.09
26775;BME280;14362;51.902;7.626;2022-11-15T14:40:49;99943.69;;;14.24;60.48
26775;BME280;14362;51.902;7.626;2022-11-15T14:44:51;99937.66;;;14.07;62.02
26775;BME280;14362;51.902;7.626;2022-11-15T14:48:54;99934.78;;;14.03;62.33
26775;BME280;14362;51.902;7.626;2022-11-15T14:52:56;99930.47;;;13.90;63.67
26775;BME280;14362;51.902;7.626;2022-11-15T14:56:57;99918.19;;;13.79;64.20
26775;BME280;14362;51.902;7.626;2022-11-15T15:00:58;99914.16;;;13.77;64.56
26775;BME280;14362;51.902;7.626;2022-11-15T15:05:12;99906.75;;;13.69;65.71
26775;BME280;14362;51.902;7.626;2022-11-15T15:09:14;99895.56;;;13.69;66.59
26775;BME280;14362;51.902;7.626;2022-11-15T15:13:19;99891.50;;;13.66;67.26
26775;BME280;14362;51.902;7.626;2022-11-15T15:17:21;99895.94;;;13.67;68.10
26775;BME280;14362;51.902;7.626;2022-11-15T15:21:24;99886.28;;;13.65;69.07
26775;BME280;14362;51.902;7.626;2022-11-15T15:25:29;99879.78;;;13.61;69.91
26775;BME280;14362;51.902;7.626;2022-11-15T15:29:32;99866.06;;;13.56;70.00
26775;BME280;14362;51.902;7.626;2022-11-15T15:33:33;99862.28;;;13.48;70.87
26775;BME280;14362;51.902;7.626;2022-11-15T15:37:36;99853.63;;;13.38;71.02
26775;BME280;14362;51.902;7.626;2022-11-15T15:41:37;99853.44;;;13.31;71.54
26775;BME280;14362;51.902;7.626;2022-11-15T15:45:40;99848.97;;;13.27;71.00
26775;BME280;14362;51.902;7.626;2022-11-15T15:49:42;99849.16;;;13.18;71.45
26775;BME280;14362;51.902;7.626;2022-11-15T15:53:45;99847.63;;;13.05;72.53
26775;BME280;14362;51.902;7.626;2022-11-15T15:57:47;99845.56;;;13.02;73.53
26775;BME280;14362;51.902;7.626;2022-11-15T16:01:48;99844.34;;;12.88;73.82
26775;BME280;14362;51.902;7.626;2022-11-15T16:05:50;99837.13;;;12.87;74.50
26775;BME280;14362;51.902;7.626;2022-11-15T16:09:53;99823.69;;;12.77;74.87
26775;BME280;14362;51.902;7.626;2022-11-15T16:14:01;99816.66;;;12.67;75.67
26775;BME280;14362;51.902;7.626;2022-11-15T16:18:04;99817.56;;;12.56;76.55
26775;BME280;14362;51.902;7.626;2022-11-15T16:22:07;99813.75;;;12.48;77.26
26775;BME280;14362;51.902;7.626;2022-11-15T16:26:19;99804.84;;;12.43;78.13
26775;BME280;14362;51.902;7.626;2022-11-15T16:30:22;99801.03;;;12.35;79.12
26775;BME280;14362;51.902;7.626;2022-11-15T16:34:23;99799.59;;;12.26;80.02
26775;BME280;14362;51.902;7.626;2022-11-15T16:38:25;99793.53;;;12.24;81.06
26775;BME280;14362;51.902;7.626;2022-11-15T16:42:28;99794.50;;;12.16;81.59
26775;BME280;14362;51.902;7.626;2022-11-15T16:46:29;99790.34;;;12.10;82.33
26775;BME280;14362;51.902;7.626;2022-11-15T16:50:32;99779.06;;;12.07;82.54
26775;BME280;14362;51.902;7.626;2022-11-15T16:54:39;99780.16;;;12.02;83.03
26775;BME280;14362;51.902;7.626;2022-11-15T16:58:42;99778.78;;;11.96;83.70
26775;BME280;14362;51.902;7.626;2022-11-15T17:02:45;99776.44;;;11.98;84.33
26775;BME280;14362;51.902;7.626;2022-11-15T17:06:47;99767.34;;;12.01;84.47
26775;BME280;14362;51.902;7.626;2022-11-15T17:10:49;99771.94;;;12.09;84.51
26775;BME280;14362;51.902;7.626;2022-11-15T17:14:52;99764.94;;;12.15;84.62
26775;BME280;14362;51.902;7.626;2022-11-15T17:18:53;99771.44;;;12.19;84.47
26775;BME280;14362;51.902;7.626;2022-11-15T17:22:55;99771.72;;;12.29;84.69
26775;BME280;14362;51.902;7.626;2022-11-15T17:26:56;99768.22;;;12.32;84.99
26775;BME280;14362;51.902;7.626;2022-11-15T17:30:59;99760.84;;;12.40;84.73
26775;BME280;14362;51.902;7.626;2022-11-15T17:35:01;99766.06;;;12.41;85.08
26775;BME280;14362;51.902;7.626;2022-11-15T17:39:03;99759.28;;;12.42;86.01
26775;BME280;14362;51.902;7.626;2022-11-15T17:43:05;99751.09;;;12.49;86.30
26775;BME280;14362;51.902;7.626;2022-11-15T17:47:07;99751.81;;;12.46;87.44
26775;BME280;14362;51.902;7.626;2022-11-15T17:51:10;99743.97;;;12.52;87.52
26775;BME280;14362;51.902;7.626;2022-11-15T17:55:12;99744.34;;;12.50;88.00
26775;BME280;14362;51.902;7.626;2022-11-15T17:59:13;99738.47;;;12.55;88.21
26775;BME280;14362;51.902;7.626;2022-11-15T18:03:16;99743.00;;;12.60;87.99
26775;BME280;14362;51.902;7.626;2022-11-15T18:07:17;99737.03;;;12.61;88.00
26775;BME280;14362;51.902;7.626;2022-11-15T18:11:20;99730.34;;;12.66;87.96
26775;BME280;14362;51.902;7.626;2022-11-15T18:15:22;99738.31;;;12.64;88.20
26775;BME280;14362;51.902;7.626;2022-11-15T18:19:25;99732.72;;;12.64;88.29
26775;BME280;14362;51.902;7.626;2022-11-15T18:23:26;99729.47;;;12.62;88.54
26775;BME280;14362;51.902;7.626;2022-11-15T18:27:28;99727.47;;;12.62;88.84
26775;BME280;14362;51.902;7.626;2022-11-15T18:31:30;99730.34;;;12.66;89.00
26775;BME280;14362;51.902;7.626;2022-11-15T18:35:32;99710.78;;;12.66;89.55
26775;BME280;14362;51.902;7.626;2022-11-15T18:39:34;99705.09;;;12.78;88.92
26775;BME280;14362;51.902;7.626;2022-11-15T18:43:37;99710.50;;;12.71;90.06
26775;BME280;14362;51.902;7.626;2022-11-15T18:47:39;99722.78;;;12.66;90.69
26775;BME280;14362;51.902;7.626;2022-11-15T18:51:42;99724.94;;;12.73;91.25
26775;BME280;14362;51.902;7.626;2022-11-15T18:55:44;99716.00;;;12.67;92.28
26775;BME280;14362;51.902;7.626;2022-11-15T18:59:45;99704.47;;;12.69;92.29
26775;BME280;14362;51.902;7.626;2022-11-15T19:03:48;99698.78;;;12.65;92.84
26775;BME280;14362;51.902;7.626;2022-11-15T19:07:51;99696.06;;;12.69;93.15
26775;BME280;14362;51.902;7.626;2022-11-15T19:11:53;99702.09;;;12.71;93.58
26775;BME280;14362;51.902;7.626;2022-11-15T19:15:56;99684.34;;;12.63;94.53
26775;BME280;14362;51.902;7.626;2022-11-15T19:19:58;99677.78;;;12.71;94.86
26775;BME280;14362;51.902;7.626;2022-11-15T19:24:01;99669.66;;;12.66;95.04
26775;BME280;14362;51.902;7.626;2022-11-15T19:28:03;99671.56;;;12.62;95.92
26775;BME280;14362;51.902;7.626;2022-11-15T19:32:04;99676.69;;;12.60;96.09
26775;BME280;14362;51.902;7.626;2022-11-15T19:36:09;99668.84;;;12.66;96.64
26775;BME280;14362;51.902;7.626;2022-11-15T19:40:13;99680.00;;;12.66;96.83
26775;BME280;14362;51.902;7.626;2022-11-15T19:44:15;99667.66;;;12.67;97.17
26775;BME280;14362;51.902;7.626;2022-11-15T19:48:18;99663.69;;;12.68;96.92
26775;BME280;14362;51.902;7.626;2022-11-15T19:52:19;99665.16;;;12.62;97.64
26775;BME280;14362;51.902;7.626;2022-11-15T19:56:24;99667.31;;;12.68;97.93
26775;BME280;14362;51.902;7.626;2022-11-15T20:00:26;99653.22;;;12.65;98.12
26775;BME280;14362;51.902;7.626;2022-11-15T20:04:28;99652.97;;;12.70;98.15
26775;BME280;14362;51.902;7.626;2022-11-15T20:08:29;99643.84;;;12.73;98.33
26775;BME280;14362;51.902;7.626;2022-11-15T20:12:32;99634.28;;;12.74;98.71
26775;BME280;14362;51.902;7.626;2022-11-15T20:16:48;99628.75;;;12.77;98.65
26775;BME280;14362;51.902;7.626;2022-11-15T20:20:50;99631.56;;;12.77;98.90
26775;BME280;14362;51.902;7.626;2022-11-15T20:24:52;99624.78;;;12.78;99.11
26775;BME280;14362;51.902;7.626;2022-11-15T20:28:53;99622.00;;;12.78;99.33
26775;BME280;14362;51.902;7.626;2022-11-15T20:33:01;99617.97;;;12.76;99.93
26775;BME280;14362;51.902;7.626;2022-11-15T20:37:03;99617.69;;;12.81;100.00
26775;BME280;14362;51.902;7.626;2022-11-15T20:41:04;99620.81;;;12.79;100.00
26775;BME280;14362;51.902;7.626;2022-11-15T20:45:06;99617.59;;;12.77;100.00
26775;BME280;14362;51.902;7.626;2022-11-15T20:49:09;99601.34;;;12.83;100.00
26775;BME280;14362;51.902;7.626;2022-11-15T20:53:14;99608.41;;;12.77;100.00
26775;BME280;14362;51.902;7.626;2022-11-15T20:57:16;99596.47;;;12.80;100.00
26775;BME280;14362;51.902;7.626;2022-11-15T21:01:18;99602.44;;;12.78;100.00
26775;BME280;14362;51.902;7.626;2022-11-15T21:05:23;99605.88;;;12.72;100.00
26775;BME280;14362;51.902;7.626;2022-11-15T21:09:25;99602.63;;;12.70;100.00
26775;BME280;14362;51.902;7.626;2022-11-15T21:13:44;99596.03;;;12.78;100.00
26775;BME280;14362;51.902;7.626;2022-11-15T21:17:45;99580.78;;;12.75;100.00
26775;BME280;14362;51.902;7.626;2022-11-15T21:21:48;99587.19;;;12.76;100.00
26775;BME280;14362;51.902;7.626;2022-11-15T21:25:50;99589.63;;;12.77;100.00
26775;BME280;14362;51.902;7.626;2022-11-15T21:29:52;99589.28;;;12.79;100.00